Time;durP1;ratioP1;P1;durP2;ratioP2;P2;SDS_P1;SDS_P2;PMS_P1;PMS_P2;Temp;Humidity;BMP_temperature;BMP_pressure;BME280_temperature;BME280_humidity;BME280_pressure;Samples;Min_cycle;Max_cycle;Signal;HPM_P1;HPM_P2
2022/09/13 00:00:48;;;;;;;14.60;10.60;;;;;;;;;;5035061;28;20059;-77
2022/09/13 00:03:14;;;;;;;17.30;11.05;;;;;;;;;;5034338;28;20479;-77
2022/09/13 00:05:39;;;;;;;16.05;10.05;;;;;;;;;;5033143;28;20021;-77
2022/09/13 00:08:06;;;;;;;15.40;11.00;;;;;;;;;;5032788;28;20449;-77
2022/09/13 00:10:37;;;;;;;14.68;10.75;;;;;;;;;;5033276;28;20028;-77
2022/09/13 00:13:04;;;;;;;15.75;11.02;;;;;;;;;;5032865;28;20079;-77
2022/09/13 00:15:30;;;;;;;19.15;11.60;;;;;;;;;;5033082;28;20426;-77
2022/09/13 00:17:56;;;;;;;14.95;11.80;;;;;;;;;;5032654;28;20040;-77
2022/09/13 00:20:22;;;;;;;15.73;9.95;;;;;;;;;;5050770;28;20025;-77
2022/09/13 00:22:47;;;;;;;16.88;11.35;;;;;;;;;;5032445;28;20028;-77
2022/09/13 00:25:13;;;;;;;15.68;11.35;;;;;;;;;;5018991;28;20034;-77
2022/09/13 00:27:38;;;;;;;18.73;11.40;;;;;;;;;;5013130;28;20021;-77
2022/09/13 00:30:06;;;;;;;17.27;11.55;;;;;;;;;;5012852;28;20021;-77
2022/09/13 00:32:33;;;;;;;19.15;11.98;;;;;;;;;;5012584;28;20050;-77
2022/09/13 00:34:59;;;;;;;16.45;11.57;;;;;;;;;;5012542;28;20116;-77
2022/09/13 00:37:24;;;;;;;17.67;11.23;;;;;;;;;;5030379;28;20113;-77
2022/09/13 00:39:50;;;;;;;17.48;11.00;;;;;;;;;;5012500;28;20025;-77
2022/09/13 00:42:16;;;;;;;20.40;12.25;;;;;;;;;;5012580;28;20553;-77
2022/09/13 00:44:47;;;;;;;24.20;15.05;;;;;;;;;;5030515;28;20037;-77
2022/09/13 00:47:16;;;;;;;23.95;14.70;;;;;;;;;;5030533;28;20029;-77
2022/09/13 00:49:44;;;;;;;25.65;14.60;;;;;;;;;;5012614;28;20164;-77
2022/09/13 00:52:14;;;;;;;23.25;15.40;;;;;;;;;;5030099;28;20069;-77
2022/09/13 00:54:49;;;;;;;24.00;15.27;;;;;;;;;;5030202;28;20065;-77
2022/09/13 00:57:18;;;;;;;25.48;15.77;;;;;;;;;;5013419;28;20381;-77
2022/09/13 00:59:56;;;;;;;28.52;16.98;;;;;;;;;;5016487;28;20461;-77
2022/09/13 01:02:22;;;;;;;30.58;18.25;;;;;;;;;;5034464;28;20447;-76
2022/09/13 01:04:47;;;;;;;26.83;16.95;;;;;;;;;;5016929;28;20033;-76
2022/09/13 01:07:15;;;;;;;24.20;15.32;;;;;;;;;;5017861;28;20167;-77
2022/09/13 01:09:44;;;;;;;27.60;14.88;;;;;;;;;;5035215;28;20051;-77
2022/09/13 01:12:32;;;;;;;26.38;15.75;;;;;;;;;;5018403;28;20116;-77
2022/09/13 01:15:00;;;;;;;25.05;15.52;;;;;;;;;;5038339;28;20041;-77
2022/09/13 01:17:28;;;;;;;19.20;14.00;;;;;;;;;;5020298;28;20026;-77
2022/09/13 01:19:53;;;;;;;26.35;14.48;;;;;;;;;;5037298;28;20393;-77
2022/09/13 01:22:37;;;;;;;18.17;12.68;;;;;;;;;;5016201;28;20040;-76
2022/09/13 01:25:27;;;;;;;22.70;14.40;;;;;;;;;;5028351;28;20033;-77
2022/09/13 01:28:05;;;;;;;20.80;13.18;;;;;;;;;;5035673;28;20068;-77
2022/09/13 01:31:05;;;;;;;23.48;14.13;;;;;;;;;;5035928;28;20040;-78
2022/09/13 01:34:15;;;;;;;23.38;14.60;;;;;;;;;;5012715;28;20046;-78
2022/09/13 01:36:43;;;;;;;20.75;13.50;;;;;;;;;;5012467;28;20398;-78
2022/09/13 01:39:39;;;;;;;22.98;14.32;;;;;;;;;;5012458;28;20025;-77
2022/09/13 01:42:16;;;;;;;22.23;13.63;;;;;;;;;;5012524;28;20543;-78
2022/09/13 01:44:56;;;;;;;22.10;13.82;;;;;;;;;;5012180;28;20025;-78
2022/09/13 01:47:51;;;;;;;21.33;13.45;;;;;;;;;;5013714;28;20041;-77
2022/09/13 01:50:19;;;;;;;22.95;14.32;;;;;;;;;;5007877;28;20040;-76
2022/09/13 01:53:00;;;;;;;20.42;13.18;;;;;;;;;;5012668;28;20128;-76
2022/09/13 01:55:37;;;;;;;19.50;12.93;;;;;;;;;;5012317;28;20037;-77
2022/09/13 01:58:29;;;;;;;22.60;13.05;;;;;;;;;;5014870;28;20608;-77
2022/09/13 02:01:32;;;;;;;20.75;13.55;;;;;;;;;;4990957;28;20034;-77
2022/09/13 02:04:11;;;;;;;20.60;12.77;;;;;;;;;;4962106;28;20053;-77
2022/09/13 02:06:47;;;;;;;22.58;13.93;;;;;;;;;;5012265;28;20037;-77
2022/09/13 02:09:21;;;;;;;17.38;12.15;;;;;;;;;;5011292;28;20080;-75
2022/09/13 02:11:52;;;;;;;20.25;12.25;;;;;;;;;;5012110;28;20355;-76
2022/09/13 02:14:26;;;;;;;21.33;12.50;;;;;;;;;;5011936;28;20030;-76
2022/09/13 02:17:04;;;;;;;19.05;11.55;;;;;;;;;;5012979;28;20033;-77
2022/09/13 02:19:33;;;;;;;21.08;11.32;;;;;;;;;;5012030;28;20026;-77
2022/09/13 02:21:59;;;;;;;18.25;11.15;;;;;;;;;;5011741;28;20029;-77
2022/09/13 02:24:32;;;;;;;17.27;10.98;;;;;;;;;;5005751;28;20022;-78
2022/09/13 02:27:01;;;;;;;16.08;11.50;;;;;;;;;;4992026;28;20554;-76
2022/09/13 02:29:29;;;;;;;15.43;10.65;;;;;;;;;;4993526;28;20041;-77
2022/09/13 02:32:01;;;;;;;18.10;12.93;;;;;;;;;;4999954;28;20053;-77
2022/09/13 02:34:40;;;;;;;19.73;10.90;;;;;;;;;;5011687;28;20133;-76
2022/09/13 02:37:08;;;;;;;19.35;11.15;;;;;;;;;;5013346;28;20061;-77
2022/09/13 02:39:39;;;;;;;16.60;11.18;;;;;;;;;;5011641;28;20056;-77
2022/09/13 02:42:16;;;;;;;19.00;11.90;;;;;;;;;;5012090;28;20113;-77
2022/09/13 02:44:48;;;;;;;17.00;10.95;;;;;;;;;;5013441;28;20014;-75
2022/09/13 02:47:42;;;;;;;15.73;11.25;;;;;;;;;;5011571;28;20025;-77
2022/09/13 02:50:27;;;;;;;17.08;11.80;;;;;;;;;;5010924;28;20026;-77
2022/09/13 02:53:06;;;;;;;18.13;11.80;;;;;;;;;;5010956;28;20025;-76
2022/09/13 02:55:47;;;;;;;22.75;10.70;;;;;;;;;;5010840;28;20021;-77
2022/09/13 02:58:34;;;;;;;16.30;10.80;;;;;;;;;;5010958;28;20041;-76
2022/09/13 03:01:00;;;;;;;16.77;10.52;;;;;;;;;;5010885;28;20033;-75
2022/09/13 03:03:26;;;;;;;14.15;10.07;;;;;;;;;;5012344;28;20032;-76
2022/09/13 03:05:52;;;;;;;17.33;11.43;;;;;;;;;;5010736;28;20026;-77
2022/09/13 03:08:19;;;;;;;24.85;11.88;;;;;;;;;;5010892;28;20034;-76
2022/09/13 03:11:17;;;;;;;21.95;12.00;;;;;;;;;;5011043;28;20022;-77
2022/09/13 03:14:01;;;;;;;22.60;12.95;;;;;;;;;;5010743;28;20338;-77
2022/09/13 03:16:52;;;;;;;16.98;11.85;;;;;;;;;;5010367;28;20861;-77
2022/09/13 03:19:52;;;;;;;15.95;11.43;;;;;;;;;;5010597;28;20028;-77
2022/09/13 03:22:26;;;;;;;15.65;10.90;;;;;;;;;;4998957;28;20049;-77
2022/09/13 03:25:24;;;;;;;16.63;10.65;;;;;;;;;;5022995;28;20557;-75
2022/09/13 03:27:52;;;;;;;20.15;10.95;;;;;;;;;;5030086;28;20049;-77
2022/09/13 03:30:18;;;;;;;14.02;9.63;;;;;;;;;;5031054;28;20112;-77
2022/09/13 03:32:56;;;;;;;13.63;9.82;;;;;;;;;;5029660;28;20133;-77
2022/09/13 03:35:33;;;;;;;14.52;10.95;;;;;;;;;;5030918;28;20029;-77
2022/09/13 03:38:14;;;;;;;15.27;10.20;;;;;;;;;;5029706;28;20037;-76
2022/09/13 03:40:50;;;;;;;16.33;9.35;;;;;;;;;;5031095;28;20042;-76
2022/09/13 03:43:23;;;;;;;12.80;9.52;;;;;;;;;;5029312;28;20037;-77
2022/09/13 03:45:55;;;;;;;18.25;10.93;;;;;;;;;;5030233;28;20060;-76
2022/09/13 03:48:21;;;;;;;13.95;9.48;;;;;;;;;;5030104;28;20045;-76
2022/09/13 03:50:48;;;;;;;15.15;9.85;;;;;;;;;;5031116;28;20059;-76
2022/09/13 03:53:19;;;;;;;14.63;9.82;;;;;;;;;;5032209;28;20025;-77
2022/09/13 03:55:46;;;;;;;14.80;10.20;;;;;;;;;;5032988;28;20033;-78
2022/09/13 03:58:14;;;;;;;14.82;10.80;;;;;;;;;;5030062;28;20038;-76
2022/09/13 04:00:40;;;;;;;15.30;10.68;;;;;;;;;;5029774;28;20025;-76
2022/09/13 04:03:08;;;;;;;13.85;10.07;;;;;;;;;;5029464;28;20040;-77
2022/09/13 04:05:33;;;;;;;15.80;10.13;;;;;;;;;;5029692;28;20032;-77
2022/09/13 04:08:00;;;;;;;16.70;10.25;;;;;;;;;;5029213;28;20029;-77
2022/09/13 04:10:27;;;;;;;15.10;10.63;;;;;;;;;;5029357;28;20743;-77
2022/09/13 04:12:55;;;;;;;16.33;10.77;;;;;;;;;;5029214;28;20116;-76
2022/09/13 04:15:21;;;;;;;16.88;10.40;;;;;;;;;;5028381;28;20029;-78
2022/09/13 04:17:47;;;;;;;18.35;11.00;;;;;;;;;;5028794;28;20541;-77
2022/09/13 04:20:12;;;;;;;16.17;10.82;;;;;;;;;;5028565;28;20025;-76
2022/09/13 04:22:38;;;;;;;16.65;10.65;;;;;;;;;;5028949;28;20025;-77
2022/09/13 04:25:04;;;;;;;17.10;11.07;;;;;;;;;;5017650;28;20018;-77
2022/09/13 04:27:30;;;;;;;19.83;11.25;;;;;;;;;;5010695;28;20024;-77
2022/09/13 04:29:55;;;;;;;14.98;10.02;;;;;;;;;;5009612;28;20514;-76
2022/09/13 04:32:21;;;;;;;21.05;11.63;;;;;;;;;;5022045;28;20060;-77
2022/09/13 04:34:46;;;;;;;18.40;11.43;;;;;;;;;;5012639;28;20116;-76
2022/09/13 04:37:12;;;;;;;18.55;11.13;;;;;;;;;;5030129;28;20103;-76
2022/09/13 04:39:37;;;;;;;18.65;12.50;;;;;;;;;;5012437;28;20029;-77
2022/09/13 04:42:03;;;;;;;15.27;10.63;;;;;;;;;;5012419;28;20040;-78
2022/09/13 04:44:29;;;;;;;18.95;11.15;;;;;;;;;;5012729;28;20112;-77
2022/09/13 04:46:56;;;;;;;21.10;13.35;;;;;;;;;;5013873;28;20036;-77
2022/09/13 04:49:21;;;;;;;18.85;10.27;;;;;;;;;;5012181;28;20120;-78
2022/09/13 04:51:48;;;;;;;24.73;11.57;;;;;;;;;;5030428;28;20117;-77
2022/09/13 04:54:14;;;;;;;25.02;10.80;;;;;;;;;;5012478;28;20056;-77
2022/09/13 04:56:40;;;;;;;17.13;10.77;;;;;;;;;;5012371;28;20068;-77
2022/09/13 04:59:05;;;;;;;19.73;10.88;;;;;;;;;;5012452;28;20060;-77
2022/09/13 05:01:31;;;;;;;19.08;10.43;;;;;;;;;;5012223;28;20053;-77
2022/09/13 05:03:57;;;;;;;18.73;10.00;;;;;;;;;;5012707;28;20450;-77
2022/09/13 05:06:22;;;;;;;16.15;10.55;;;;;;;;;;5013044;28;20029;-77
2022/09/13 05:08:54;;;;;;;18.35;10.43;;;;;;;;;;5016046;28;20450;-77
2022/09/13 05:11:21;;;;;;;14.93;9.93;;;;;;;;;;5015775;28;20109;-77
2022/09/13 05:13:51;;;;;;;19.30;9.85;;;;;;;;;;5033789;28;20034;-77
2022/09/13 05:16:17;;;;;;;21.30;10.90;;;;;;;;;;5015365;28;20116;-78
2022/09/13 05:18:43;;;;;;;36.05;12.57;;;;;;;;;;5031257;28;20060;-76
2022/09/13 05:21:08;;;;;;;19.85;9.98;;;;;;;;;;5043023;28;20079;-77
2022/09/13 05:23:34;;;;;;;12.35;9.00;;;;;;;;;;5030875;28;20071;-76
2022/09/13 05:26:03;;;;;;;19.77;9.95;;;;;;;;;;5011004;28;20037;-76
2022/09/13 05:28:30;;;;;;;15.38;9.10;;;;;;;;;;5022778;28;20148;-77
2022/09/13 05:30:59;;;;;;;14.35;9.77;;;;;;;;;;5011973;28;20040;-78
2022/09/13 05:33:26;;;;;;;15.85;9.80;;;;;;;;;;5025642;28;20037;-78
2022/09/13 05:35:52;;;;;;;15.05;8.95;;;;;;;;;;5012477;28;20550;-76
2022/09/13 05:38:18;;;;;;;14.65;9.77;;;;;;;;;;5021911;28;20027;-77
2022/09/13 05:40:47;;;;;;;12.85;9.10;;;;;;;;;;5029069;28;20028;-76
2022/09/13 05:43:14;;;;;;;13.88;9.55;;;;;;;;;;5026088;28;20075;-78
2022/09/13 05:45:41;;;;;;;16.92;9.35;;;;;;;;;;5022421;28;20030;-76
2022/09/13 05:48:06;;;;;;;14.60;9.43;;;;;;;;;;5044636;28;20049;-76
2022/09/13 05:50:36;;;;;;;15.85;9.02;;;;;;;;;;5026501;28;20332;-77
2022/09/13 05:53:04;;;;;;;14.85;8.88;;;;;;;;;;5027686;28;20032;-75
2022/09/13 05:55:29;;;;;;;18.90;9.65;;;;;;;;;;5025727;28;20033;-75
2022/09/13 05:57:55;;;;;;;15.07;8.98;;;;;;;;;;5033328;28;20037;-73
2022/09/13 06:00:20;;;;;;;16.15;10.25;;;;;;;;;;5018566;28;20151;-75
2022/09/13 06:02:46;;;;;;;15.18;9.52;;;;;;;;;;5045508;28;20508;-76
2022/09/13 06:05:12;;;;;;;15.15;9.35;;;;;;;;;;5046188;28;20029;-75
2022/09/13 06:07:41;;;;;;;13.00;8.90;;;;;;;;;;5027052;28;20456;-74
2022/09/13 06:10:08;;;;;;;11.98;8.70;;;;;;;;;;5030096;28;20500;-76
2022/09/13 06:12:34;;;;;;;14.68;9.05;;;;;;;;;;5041347;28;20665;-77
2022/09/13 06:14:59;;;;;;;16.75;10.00;;;;;;;;;;5043698;28;20033;-76
2022/09/13 06:17:25;;;;;;;16.77;10.23;;;;;;;;;;5046656;28;20039;-77
2022/09/13 06:19:50;;;;;;;12.15;8.75;;;;;;;;;;5043604;28;20033;-77
2022/09/13 06:22:16;;;;;;;12.95;8.65;;;;;;;;;;5043157;28;20577;-78
2022/09/13 06:24:42;;;;;;;17.60;9.80;;;;;;;;;;5032659;28;20029;-77
2022/09/13 06:27:11;;;;;;;17.05;10.52;;;;;;;;;;5027637;28;20021;-76
2022/09/13 06:29:37;;;;;;;18.02;9.65;;;;;;;;;;5029294;28;20029;-76
2022/09/13 06:32:03;;;;;;;14.52;9.52;;;;;;;;;;5042810;28;20401;-77
2022/09/13 06:34:29;;;;;;;27.60;13.63;;;;;;;;;;5029206;28;20036;-75
2022/09/13 06:36:58;;;;;;;14.32;9.32;;;;;;;;;;5038253;28;20052;-77
2022/09/13 06:39:24;;;;;;;15.60;8.32;;;;;;;;;;5021512;28;20037;-77
2022/09/13 06:41:49;;;;;;;15.98;9.02;;;;;;;;;;5038228;28;20173;-76
2022/09/13 06:44:15;;;;;;;15.35;9.30;;;;;;;;;;5022831;28;20135;-78
2022/09/13 06:46:40;;;;;;;13.68;8.68;;;;;;;;;;5021666;28;20083;-76
2022/09/13 06:49:08;;;;;;;14.63;8.35;;;;;;;;;;5042357;28;20619;-78
2022/09/13 06:51:35;;;;;;;13.00;9.02;;;;;;;;;;5023545;28;20045;-76
2022/09/13 06:54:02;;;;;;;16.83;11.68;;;;;;;;;;5026938;28;20045;-74
2022/09/13 06:56:31;;;;;;;19.55;10.40;;;;;;;;;;5026572;28;20473;-75
2022/09/13 06:59:01;;;;;;;13.05;9.15;;;;;;;;;;5037622;28;20062;-75
2022/09/13 07:01:30;;;;;;;16.77;9.32;;;;;;;;;;5039809;28;20433;-74
2022/09/13 07:04:10;;;;;;;16.58;10.07;;;;;;;;;;5044739;28;20032;-76
2022/09/13 07:06:39;;;;;;;14.93;9.15;;;;;;;;;;5019405;28;20545;-76
2022/09/13 07:09:08;;;;;;;13.75;8.80;;;;;;;;;;5024467;28;20045;-78
2022/09/13 07:11:36;;;;;;;18.08;8.80;;;;;;;;;;5044380;28;20147;-79
2022/09/13 07:14:03;;;;;;;13.27;8.80;;;;;;;;;;5020448;28;20036;-82
2022/09/13 07:16:30;;;;;;;16.75;9.77;;;;;;;;;;5017270;28;20037;-76
2022/09/13 07:18:59;;;;;;;14.05;9.55;;;;;;;;;;5005568;28;20396;-78
2022/09/13 07:21:26;;;;;;;15.60;9.32;;;;;;;;;;5019471;28;20037;-77
2022/09/13 07:23:54;;;;;;;16.38;9.10;;;;;;;;;;5024635;28;20056;-77
2022/09/13 07:26:22;;;;;;;17.42;9.15;;;;;;;;;;5011386;28;20039;-78
2022/09/13 07:28:51;;;;;;;16.70;11.32;;;;;;;;;;5011683;28;20089;-78
2022/09/13 07:31:19;;;;;;;17.33;8.85;;;;;;;;;;5047160;28;20055;-79
2022/09/13 07:33:46;;;;;;;12.80;8.25;;;;;;;;;;5046651;28;20060;-78
2022/09/13 07:36:12;;;;;;;12.77;8.20;;;;;;;;;;5049446;28;20029;-78
2022/09/13 07:38:40;;;;;;;15.82;9.32;;;;;;;;;;5043503;28;20471;-78
2022/09/13 07:41:09;;;;;;;13.60;8.40;;;;;;;;;;5042883;28;20082;-77
2022/09/13 07:43:35;;;;;;;12.13;8.18;;;;;;;;;;5008031;28;20178;-78
2022/09/13 07:46:02;;;;;;;15.48;8.40;;;;;;;;;;5042049;28;20123;-78
2022/09/13 07:48:30;;;;;;;14.93;8.35;;;;;;;;;;5024632;28;20043;-78
2022/09/13 07:51:03;;;;;;;14.52;8.75;;;;;;;;;;5037979;28;20041;-78
2022/09/13 07:53:29;;;;;;;15.48;9.15;;;;;;;;;;5025864;28;20033;-78
2022/09/13 07:56:13;;;;;;;13.75;8.23;;;;;;;;;;5026930;28;20067;-78
2022/09/13 07:58:40;;;;;;;16.35;8.23;;;;;;;;;;5022729;28;20102;-78
2022/09/13 08:01:13;;;;;;;12.15;8.57;;;;;;;;;;5027797;28;20338;-78
2022/09/13 08:03:39;;;;;;;18.92;8.07;;;;;;;;;;5024876;28;20496;-78
2022/09/13 08:06:06;;;;;;;14.27;8.63;;;;;;;;;;5046764;28;20040;-78
2022/09/13 08:08:33;;;;;;;15.90;9.65;;;;;;;;;;5041766;28;20036;-78
2022/09/13 08:11:00;;;;;;;9.85;7.22;;;;;;;;;;5038186;28;20385;-77
2022/09/13 08:13:26;;;;;;;12.82;7.43;;;;;;;;;;5037518;28;20120;-78
2022/09/13 08:15:51;;;;;;;14.80;7.75;;;;;;;;;;5027222;28;20083;-79
2022/09/13 08:18:18;;;;;;;11.15;7.32;;;;;;;;;;5046200;28;20028;-77
2022/09/13 08:20:44;;;;;;;13.20;7.35;;;;;;;;;;5025153;28;20032;-77
2022/09/13 08:23:11;;;;;;;11.18;7.40;;;;;;;;;;5029049;28;20024;-78
2022/09/13 08:25:37;;;;;;;9.98;6.28;;;;;;;;;;5038868;28;20139;-78
2022/09/13 08:28:08;;;;;;;9.18;7.63;;;;;;;;;;5021670;28;20033;-77
2022/09/13 08:30:35;;;;;;;10.65;7.30;;;;;;;;;;5024191;28;20100;-77
2022/09/13 08:33:03;;;;;;;9.75;7.00;;;;;;;;;;5025842;28;20052;-77
2022/09/13 08:35:30;;;;;;;12.52;7.15;;;;;;;;;;5020283;28;20064;-77
2022/09/13 08:37:57;;;;;;;9.32;6.50;;;;;;;;;;5023082;28;20033;-78
2022/09/13 08:40:27;;;;;;;12.45;7.43;;;;;;;;;;5009801;28;20029;-77
2022/09/13 08:43:35;;;;;;;12.18;7.25;;;;;;;;;;5006932;28;20052;-78
2022/09/13 08:46:08;;;;;;;11.27;6.78;;;;;;;;;;4969330;28;20054;-78
2022/09/13 08:48:36;;;;;;;9.25;7.13;;;;;;;;;;5028178;28;20060;-79
2022/09/13 08:51:10;;;;;;;12.55;7.30;;;;;;;;;;5022383;28;20041;-78
2022/09/13 08:53:45;;;;;;;11.13;7.18;;;;;;;;;;5024019;28;20033;-77
2022/09/13 08:56:28;;;;;;;10.65;7.13;;;;;;;;;;5024814;28;20485;-78
2022/09/13 08:58:59;;;;;;;15.60;7.35;;;;;;;;;;5020455;28;20120;-78
2022/09/13 09:01:35;;;;;;;10.70;6.57;;;;;;;;;;5020635;28;20030;-76
2022/09/13 09:04:10;;;;;;;11.10;6.60;;;;;;;;;;5021844;28;20022;-79
2022/09/13 09:06:35;;;;;;;10.63;6.38;;;;;;;;;;5024663;28;20449;-78
2022/09/13 09:09:16;;;;;;;9.27;6.70;;;;;;;;;;5028660;28;20029;-78
2022/09/13 09:11:55;;;;;;;8.67;5.53;;;;;;;;;;5032763;28;20673;-77
2022/09/13 09:14:31;;;;;;;8.75;5.30;;;;;;;;;;5037961;28;20021;-76
2022/09/13 09:17:05;;;;;;;7.03;5.28;;;;;;;;;;5035613;28;20037;-77
2022/09/13 09:19:39;;;;;;;6.47;5.57;;;;;;;;;;5036621;28;20026;-74
2022/09/13 09:22:12;;;;;;;14.32;6.95;;;;;;;;;;5029373;28;20044;-77
2022/09/13 09:24:39;;;;;;;9.38;5.50;;;;;;;;;;5039918;28;20060;-78
2022/09/13 09:27:15;;;;;;;6.25;5.63;;;;;;;;;;5022318;28;20539;-78
2022/09/13 09:29:45;;;;;;;10.48;4.78;;;;;;;;;;5024299;28;20033;-77
2022/09/13 09:32:36;;;;;;;7.38;5.13;;;;;;;;;;5045274;28;20037;-78
2022/09/13 09:35:02;;;;;;;8.00;5.22;;;;;;;;;;5029729;28;20033;-78
2022/09/13 09:37:30;;;;;;;6.35;5.53;;;;;;;;;;5024886;28;20207;-78
2022/09/13 09:40:06;;;;;;;8.75;5.57;;;;;;;;;;5022642;28;20025;-78
2022/09/13 09:42:40;;;;;;;10.00;5.78;;;;;;;;;;5027894;28;20124;-79
2022/09/13 09:45:28;;;;;;;9.48;6.00;;;;;;;;;;5025759;28;20017;-78
2022/09/13 09:47:56;;;;;;;9.68;5.50;;;;;;;;;;5019187;28;20097;-78
2022/09/13 09:50:26;;;;;;;10.18;5.13;;;;;;;;;;5039007;28;20029;-78
2022/09/13 09:53:13;;;;;;;10.63;5.63;;;;;;;;;;5019360;28;20018;-78
2022/09/13 09:56:07;;;;;;;7.38;5.07;;;;;;;;;;5029832;28;20116;-79
2022/09/13 09:58:45;;;;;;;10.00;5.68;;;;;;;;;;5027780;28;20115;-77
2022/09/13 10:01:28;;;;;;;9.20;5.95;;;;;;;;;;5031269;28;20025;-78
2022/09/13 10:04:21;;;;;;;10.65;6.18;;;;;;;;;;5026564;28;20057;-77
2022/09/13 10:06:48;;;;;;;9.85;5.13;;;;;;;;;;5028021;28;20116;-80
2022/09/13 10:09:17;;;;;;;10.50;5.80;;;;;;;;;;5028651;28;20056;-78
2022/09/13 10:11:56;;;;;;;9.25;5.68;;;;;;;;;;5027574;28;20040;-78
2022/09/13 10:14:43;;;;;;;11.20;6.60;;;;;;;;;;5026893;28;20029;-77
2022/09/13 10:17:28;;;;;;;7.63;4.53;;;;;;;;;;5026703;28;20036;-78
2022/09/13 10:20:13;;;;;;;11.38;5.22;;;;;;;;;;5024538;28;20029;-77
2022/09/13 10:22:39;;;;;;;10.32;5.60;;;;;;;;;;5028261;28;20025;-77
2022/09/13 10:25:21;;;;;;;10.43;4.85;;;;;;;;;;5027561;28;20036;-78
2022/09/13 10:27:53;;;;;;;8.32;4.82;;;;;;;;;;5026356;28;20029;-78
2022/09/13 10:30:36;;;;;;;8.07;4.07;;;;;;;;;;5025351;28;20070;-78
2022/09/13 10:33:05;;;;;;;8.20;4.20;;;;;;;;;;5025821;28;20840;-78
2022/09/13 10:35:31;;;;;;;8.15;4.47;;;;;;;;;;5031052;28;20120;-78
2022/09/13 10:37:56;;;;;;;12.80;5.00;;;;;;;;;;5028470;28;20543;-79
2022/09/13 10:40:37;;;;;;;11.10;4.75;;;;;;;;;;5021241;28;20068;-77
2022/09/13 10:43:06;;;;;;;6.97;4.45;;;;;;;;;;5023145;28;20025;-77
2022/09/13 10:45:33;;;;;;;6.35;4.00;;;;;;;;;;5019599;28;20386;-79
2022/09/13 10:48:13;;;;;;;10.27;4.97;;;;;;;;;;5027634;28;20795;-76
2022/09/13 10:50:40;;;;;;;6.32;4.38;;;;;;;;;;5025178;28;20044;-78
2022/09/13 10:53:36;;;;;;;9.98;5.25;;;;;;;;;;5028033;28;20481;-78
2022/09/13 10:56:03;;;;;;;8.65;4.85;;;;;;;;;;5034616;28;20025;-78
2022/09/13 10:58:29;;;;;;;5.75;4.07;;;;;;;;;;5025754;28;20032;-78
2022/09/13 11:01:00;;;;;;;11.55;5.70;;;;;;;;;;5023648;28;20025;-78
2022/09/13 11:04:03;;;;;;;13.18;5.10;;;;;;;;;;5022201;28;20030;-77
2022/09/13 11:06:47;;;;;;;13.32;4.90;;;;;;;;;;5022901;28;20377;-78
2022/09/13 11:09:44;;;;;;;8.75;4.45;;;;;;;;;;5016427;28;20038;-75
2022/09/13 11:12:10;;;;;;;8.25;4.50;;;;;;;;;;5034124;28;20045;-75
2022/09/13 11:15:07;;;;;;;6.97;4.50;;;;;;;;;;5018641;28;20241;-78
2022/09/13 11:17:53;;;;;;;6.45;4.72;;;;;;;;;;5023493;28;20029;-76
2022/09/13 11:20:39;;;;;;;7.95;4.95;;;;;;;;;;5018915;28;20389;-76
2022/09/13 11:23:42;;;;;;;5.03;4.15;;;;;;;;;;5018386;28;20050;-78
2022/09/13 11:26:26;;;;;;;6.85;4.75;;;;;;;;;;5020020;28;20280;-80
2022/09/13 11:29:08;;;;;;;5.65;3.97;;;;;;;;;;5023009;28;20029;-77
2022/09/13 11:32:17;;;;;;;3.78;3.15;;;;;;;;;;5018508;28;20343;-80
2022/09/13 11:35:09;;;;;;;8.18;3.42;;;;;;;;;;5045188;28;20044;-76
2022/09/13 11:37:59;;;;;;;5.22;3.10;;;;;;;;;;4960367;28;20038;-76
2022/09/13 11:40:47;;;;;;;4.03;3.35;;;;;;;;;;5024838;28;20063;-74
2022/09/13 11:43:33;;;;;;;5.80;2.92;;;;;;;;;;5024257;28;20052;-80
2022/09/13 11:46:07;;;;;;;5.88;4.40;;;;;;;;;;5038735;28;20079;-77
2022/09/13 11:49:01;;;;;;;5.32;3.20;;;;;;;;;;5025017;28;20040;-75
2022/09/13 11:52:19;;;;;;;3.65;3.25;;;;;;;;;;5036985;28;20097;-78
2022/09/13 11:54:53;;;;;;;5.65;2.95;;;;;;;;;;4933673;28;20550;-76
2022/09/13 11:57:39;;;;;;;5.22;2.97;;;;;;;;;;4942310;28;20070;-75
2022/09/13 12:00:19;;;;;;;4.43;2.92;;;;;;;;;;5021960;28;20041;-77
2022/09/13 12:02:48;;;;;;;3.70;2.90;;;;;;;;;;5018830;28;20017;-76
2022/09/13 12:05:23;;;;;;;7.97;2.90;;;;;;;;;;5019188;28;20043;-77
2022/09/13 12:08:04;;;;;;;4.90;3.58;;;;;;;;;;5037190;28;20117;-76
2022/09/13 12:10:45;;;;;;;6.90;3.90;;;;;;;;;;5041935;28;20048;-78
2022/09/13 12:13:24;;;;;;;7.43;3.60;;;;;;;;;;5038991;28;20496;-76
2022/09/13 12:15:54;;;;;;;4.53;3.10;;;;;;;;;;5038596;28;20349;-79
2022/09/13 12:18:44;;;;;;;6.07;3.00;;;;;;;;;;5023030;28;20025;-78
2022/09/13 12:21:18;;;;;;;4.53;3.05;;;;;;;;;;5027075;28;20158;-78
2022/09/13 12:23:59;;;;;;;7.03;3.10;;;;;;;;;;5040181;28;20055;-78
2022/09/13 12:26:36;;;;;;;5.13;3.47;;;;;;;;;;5043859;28;20033;-78
2022/09/13 12:29:13;;;;;;;3.65;3.35;;;;;;;;;;5023108;28;20515;-78
2022/09/13 12:31:40;;;;;;;5.28;2.65;;;;;;;;;;5022489;28;20049;-80
2022/09/13 12:34:12;;;;;;;6.13;3.13;;;;;;;;;;5011250;28;20076;-78
2022/09/13 12:36:52;;;;;;;4.18;3.15;;;;;;;;;;5027688;28;20033;-76
2022/09/13 12:39:33;;;;;;;4.65;2.65;;;;;;;;;;5025397;28;20033;-78
2022/09/13 12:42:35;;;;;;;7.28;4.40;;;;;;;;;;5028326;28;20051;-78
2022/09/13 12:45:09;;;;;;;2.90;2.67;;;;;;;;;;5040302;28;20035;-77
2022/09/13 12:47:51;;;;;;;4.30;3.10;;;;;;;;;;5029868;28;20029;-77
2022/09/13 12:50:36;;;;;;;5.13;2.80;;;;;;;;;;5025398;28;20025;-80
2022/09/13 12:53:25;;;;;;;5.80;3.10;;;;;;;;;;5040492;28;20665;-77
2022/09/13 12:56:30;;;;;;;4.38;3.40;;;;;;;;;;5049341;28;20036;-81
2022/09/13 12:59:37;;;;;;;4.13;2.72;;;;;;;;;;5014789;28;20508;-79
2022/09/13 13:02:25;;;;;;;6.93;2.97;;;;;;;;;;5023919;28;20366;-78
2022/09/13 13:04:58;;;;;;;3.20;2.90;;;;;;;;;;5030228;28;20600;-76
2022/09/13 13:07:24;;;;;;;3.92;2.80;;;;;;;;;;5023748;28;20076;-77
2022/09/13 13:09:55;;;;;;;7.22;3.25;;;;;;;;;;5030221;28;20088;-73
2022/09/13 13:12:36;;;;;;;4.10;3.65;;;;;;;;;;5046943;28;21006;-77
2022/09/13 13:15:14;;;;;;;4.55;2.67;;;;;;;;;;5027474;28;20482;-76
2022/09/13 13:17:51;;;;;;;4.43;2.70;;;;;;;;;;5048024;28;20044;-77
2022/09/13 13:20:53;;;;;;;5.80;3.00;;;;;;;;;;5044565;28;20032;-78
2022/09/13 13:23:22;;;;;;;4.53;2.75;;;;;;;;;;5054676;28;20143;-77
2022/09/13 13:26:06;;;;;;;2.60;2.30;;;;;;;;;;5039457;28;20025;-77
2022/09/13 13:28:44;;;;;;;2.80;2.50;;;;;;;;;;5040639;28;20119;-78
2022/09/13 13:31:28;;;;;;;6.55;2.60;;;;;;;;;;5037816;28;20034;-76
2022/09/13 13:33:57;;;;;;;12.90;2.83;;;;;;;;;;5013507;28;20462;-78
2022/09/13 13:36:39;;;;;;;4.25;3.05;;;;;;;;;;5008725;28;20026;-78
2022/09/13 13:39:07;;;;;;;8.35;2.70;;;;;;;;;;5029885;28;20116;-80
2022/09/13 13:41:37;;;;;;;5.22;2.58;;;;;;;;;;5011079;28;20030;-77
2022/09/13 13:44:14;;;;;;;6.18;2.83;;;;;;;;;;5009137;28;20080;-78
2022/09/13 13:46:41;;;;;;;4.07;2.83;;;;;;;;;;5004558;28;20092;-77
2022/09/13 13:49:30;;;;;;;11.13;3.20;;;;;;;;;;5009253;28;20021;-79
2022/09/13 13:52:05;;;;;;;4.57;3.33;;;;;;;;;;4993433;28;20041;-78
2022/09/13 13:54:53;;;;;;;5.82;2.42;;;;;;;;;;5006951;28;20029;-75
2022/09/13 13:57:31;;;;;;;4.18;3.60;;;;;;;;;;5009479;28;20034;-77
2022/09/13 14:00:13;;;;;;;4.03;2.63;;;;;;;;;;5007678;28;20156;-76
2022/09/13 14:02:48;;;;;;;3.78;2.47;;;;;;;;;;4992338;28;20030;-77
2022/09/13 14:05:32;;;;;;;3.03;2.28;;;;;;;;;;5004522;28;20133;-78
2022/09/13 14:08:06;;;;;;;4.90;2.60;;;;;;;;;;5007878;28;20494;-79
2022/09/13 14:10:51;;;;;;;2.95;2.47;;;;;;;;;;5010541;28;20481;-78
2022/09/13 14:13:40;;;;;;;5.38;2.92;;;;;;;;;;5007108;28;20026;-78
2022/09/13 14:16:16;;;;;;;2.85;2.65;;;;;;;;;;4992792;28;20038;-77
2022/09/13 14:19:00;;;;;;;4.05;3.13;;;;;;;;;;5008408;28;20038;-78
2022/09/13 14:21:28;;;;;;;4.18;2.95;;;;;;;;;;5009032;28;20096;-78
2022/09/13 14:24:26;;;;;;;5.90;2.88;;;;;;;;;;5005274;28;20022;-78
2022/09/13 14:26:57;;;;;;;3.72;2.72;;;;;;;;;;4988139;28;20038;-78
2022/09/13 14:29:26;;;;;;;5.13;2.97;;;;;;;;;;5007404;28;20773;-77
2022/09/13 14:31:54;;;;;;;5.93;2.60;;;;;;;;;;5012574;28;20049;-78
2022/09/13 14:34:23;;;;;;;5.10;3.15;;;;;;;;;;5006729;28;20037;-77
2022/09/13 14:36:55;;;;;;;5.22;3.28;;;;;;;;;;5025482;28;20029;-78
2022/09/13 14:39:20;;;;;;;5.18;2.88;;;;;;;;;;5025536;28;20240;-78
2022/09/13 14:41:46;;;;;;;7.18;3.35;;;;;;;;;;5027940;28;20044;-78
2022/09/13 14:44:20;;;;;;;6.57;3.30;;;;;;;;;;5026625;28;20076;-78
2022/09/13 14:46:53;;;;;;;13.23;4.40;;;;;;;;;;5027111;28;20044;-78
2022/09/13 14:49:37;;;;;;;8.75;3.80;;;;;;;;;;5025301;28;20044;-78
2022/09/13 14:52:45;;;;;;;3.72;3.13;;;;;;;;;;5013908;28;20033;-78
2022/09/13 14:55:15;;;;;;;4.07;2.78;;;;;;;;;;5010769;28;20061;-79
2022/09/13 14:57:45;;;;;;;4.57;3.57;;;;;;;;;;5030995;28;20037;-78
2022/09/13 15:00:16;;;;;;;11.07;4.70;;;;;;;;;;5027355;28;20279;-79
2022/09/13 15:02:48;;;;;;;70.23;10.07;;;;;;;;;;5037274;28;20503;-78
2022/09/13 15:05:17;;;;;;;7.75;3.42;;;;;;;;;;5026692;28;20030;-76
2022/09/13 15:07:44;;;;;;;5.10;3.05;;;;;;;;;;5023116;28;20517;-76